sensor_id;sensor_type;location;lat;lon;timestamp;temperature;humidity
35804;DHT22;21924;51.934;7.414;2023-06-22T00:01:09;20.80;99.90
35804;DHT22;21924;51.934;7.414;2023-06-22T00:03:53;20.80;99.90
35804;DHT22;21924;51.934;7.414;2023-06-22T00:06:38;20.70;99.90
35804;DHT22;21924;51.934;7.414;2023-06-22T00:09:22;20.60;99.90
35804;DHT22;21924;51.934;7.414;2023-06-22T00:12:06;20.60;99.90
35804;DHT22;21924;51.934;7.414;2023-06-22T00:14:51;20.50;99.90
35804;DHT22;21924;51.934;7.414;2023-06-22T00:17:35;20.40;99.90
35804;DHT22;21924;51.934;7.414;2023-06-22T00:20:19;20.40;99.90
35804;DHT22;21924;51.934;7.414;2023-06-22T00:23:05;20.30;99.90
35804;DHT22;21924;51.934;7.414;2023-06-22T00:25:53;20.20;99.90
35804;DHT22;21924;51.934;7.414;2023-06-22T00:28:37;20.20;99.90
35804;DHT22;21924;51.934;7.414;2023-06-22T00:31:21;20.20;99.90
35804;DHT22;21924;51.934;7.414;2023-06-22T00:34:05;20.20;99.90
35804;DHT22;21924;51.934;7.414;2023-06-22T00:36:52;20.50;99.90
35804;DHT22;21924;51.934;7.414;2023-06-22T00:39:36;20.10;99.90
35804;DHT22;21924;51.934;7.414;2023-06-22T00:42:21;20.10;99.90
35804;DHT22;21924;51.934;7.414;2023-06-22T00:45:06;20.10;99.90
35804;DHT22;21924;51.934;7.414;2023-06-22T00:47:56;20.10;99.90
35804;DHT22;21924;51.934;7.414;2023-06-22T00:50:41;20.00;99.90
35804;DHT22;21924;51.934;7.414;2023-06-22T00:53:25;20.00;99.90
35804;DHT22;21924;51.934;7.414;2023-06-22T00:56:10;20.00;99.90
35804;DHT22;21924;51.934;7.414;2023-06-22T00:58:58;19.90;99.90
35804;DHT22;21924;51.934;7.414;2023-06-22T01:01:43;19.90;99.90
35804;DHT22;21924;51.934;7.414;2023-06-22T01:04:34;19.80;99.90
35804;DHT22;21924;51.934;7.414;2023-06-22T01:07:31;19.90;99.90
35804;DHT22;21924;51.934;7.414;2023-06-22T01:10:27;19.80;99.90
35804;DHT22;21924;51.934;7.414;2023-06-22T01:16:31;19.70;99.90
35804;DHT22;21924;51.934;7.414;2023-06-22T01:29:04;19.60;99.90
35804;DHT22;21924;51.934;7.414;2023-06-22T01:31:49;19.60;99.90
35804;DHT22;21924;51.934;7.414;2023-06-22T01:34:35;19.50;99.90
35804;DHT22;21924;51.934;7.414;2023-06-22T01:37:21;19.50;99.90
35804;DHT22;21924;51.934;7.414;2023-06-22T01:40:07;19.50;99.90
35804;DHT22;21924;51.934;7.414;2023-06-22T01:42:52;19.50;99.90
35804;DHT22;21924;51.934;7.414;2023-06-22T01:45:37;19.40;99.90
35804;DHT22;21924;51.934;7.414;2023-06-22T01:48:22;19.40;99.90
35804;DHT22;21924;51.934;7.414;2023-06-22T01:51:07;19.30;99.90
35804;DHT22;21924;51.934;7.414;2023-06-22T01:53:52;19.50;99.90
35804;DHT22;21924;51.934;7.414;2023-06-22T01:56:36;19.40;99.90
35804;DHT22;21924;51.934;7.414;2023-06-22T01:59:32;19.30;99.90
35804;DHT22;21924;51.934;7.414;2023-06-22T02:02:20;19.40;99.90
35804;DHT22;21924;51.934;7.414;2023-06-22T02:05:12;19.40;99.90
35804;DHT22;21924;51.934;7.414;2023-06-22T02:08:15;19.50;99.90
35804;DHT22;21924;51.934;7.414;2023-06-22T02:11:03;19.40;99.90
35804;DHT22;21924;51.934;7.414;2023-06-22T02:13:48;19.40;99.90
35804;DHT22;21924;51.934;7.414;2023-06-22T02:16:33;19.40;99.90
35804;DHT22;21924;51.934;7.414;2023-06-22T02:19:23;19.40;99.90
35804;DHT22;21924;51.934;7.414;2023-06-22T02:22:07;19.40;99.90
35804;DHT22;21924;51.934;7.414;2023-06-22T02:24:51;19.40;99.90
35804;DHT22;21924;51.934;7.414;2023-06-22T02:27:36;19.30;99.90
35804;DHT22;21924;51.934;7.414;2023-06-22T02:30:24;19.30;99.90
35804;DHT22;21924;51.934;7.414;2023-06-22T02:33:08;19.30;99.90
35804;DHT22;21924;51.934;7.414;2023-06-22T02:35:53;19.40;99.90
35804;DHT22;21924;51.934;7.414;2023-06-22T02:38:37;19.30;99.90
35804;DHT22;21924;51.934;7.414;2023-06-22T02:41:21;19.30;99.90
35804;DHT22;21924;51.934;7.414;2023-06-22T02:44:06;19.30;99.90
35804;DHT22;21924;51.934;7.414;2023-06-22T02:46:50;19.30;99.90
35804;DHT22;21924;51.934;7.414;2023-06-22T02:49:35;19.30;99.90
35804;DHT22;21924;51.934;7.414;2023-06-22T02:52:19;19.30;99.90
35804;DHT22;21924;51.934;7.414;2023-06-22T02:55:04;19.30;99.90
35804;DHT22;21924;51.934;7.414;2023-06-22T02:57:48;19.30;99.90
35804;DHT22;21924;51.934;7.414;2023-06-22T03:00:36;19.30;99.90
35804;DHT22;21924;51.934;7.414;2023-06-22T03:03:20;19.20;99.90
35804;DHT22;21924;51.934;7.414;2023-06-22T03:06:05;19.30;99.90
35804;DHT22;21924;51.934;7.414;2023-06-22T03:08:50;19.20;99.90
35804;DHT22;21924;51.934;7.414;2023-06-22T03:11:34;19.20;99.90
35804;DHT22;21924;51.934;7.414;2023-06-22T03:14:19;19.20;99.90
35804;DHT22;21924;51.934;7.414;2023-06-22T03:17:04;19.10;99.90
35804;DHT22;21924;51.934;7.414;2023-06-22T03:19:49;19.10;99.90
35804;DHT22;21924;51.934;7.414;2023-06-22T03:22:33;19.00;99.90
35804;DHT22;21924;51.934;7.414;2023-06-22T03:25:17;19.10;99.90
35804;DHT22;21924;51.934;7.414;2023-06-22T03:28:02;19.10;99.90
35804;DHT22;21924;51.934;7.414;2023-06-22T03:30:46;19.00;99.90
35804;DHT22;21924;51.934;7.414;2023-06-22T03:33:30;19.00;99.90
35804;DHT22;21924;51.934;7.414;2023-06-22T03:36:15;19.00;99.90
35804;DHT22;21924;51.934;7.414;2023-06-22T03:39:02;19.00;99.90
35804;DHT22;21924;51.934;7.414;2023-06-22T03:41:47;19.10;99.90
35804;DHT22;21924;51.934;7.414;2023-06-22T03:44:31;19.10;99.90
35804;DHT22;21924;51.934;7.414;2023-06-22T03:47:15;19.10;99.90
35804;DHT22;21924;51.934;7.414;2023-06-22T03:49:59;19.10;99.90
35804;DHT22;21924;51.934;7.414;2023-06-22T03:52:44;19.10;99.90
35804;DHT22;21924;51.934;7.414;2023-06-22T03:55:28;19.10;99.90
35804;DHT22;21924;51.934;7.414;2023-06-22T03:58:13;19.10;99.90
35804;DHT22;21924;51.934;7.414;2023-06-22T04:00:57;19.10;99.90
35804;DHT22;21924;51.934;7.414;2023-06-22T04:03:41;19.00;99.90
35804;DHT22;21924;51.934;7.414;2023-06-22T04:06:25;19.10;99.90
35804;DHT22;21924;51.934;7.414;2023-06-22T04:09:10;19.10;99.90
35804;DHT22;21924;51.934;7.414;2023-06-22T04:11:54;19.10;99.90
35804;DHT22;21924;51.934;7.414;2023-06-22T04:14:39;19.10;99.90
35804;DHT22;21924;51.934;7.414;2023-06-22T04:17:23;19.20;99.90
35804;DHT22;21924;51.934;7.414;2023-06-22T04:20:09;19.30;99.90
35804;DHT22;21924;51.934;7.414;2023-06-22T04:22:53;19.30;99.90
35804;DHT22;21924;51.934;7.414;2023-06-22T04:25:37;19.40;99.90
35804;DHT22;21924;51.934;7.414;2023-06-22T04:28:22;19.50;99.90
35804;DHT22;21924;51.934;7.414;2023-06-22T04:31:06;19.50;99.90
35804;DHT22;21924;51.934;7.414;2023-06-22T04:33:50;19.50;99.90
35804;DHT22;21924;51.934;7.414;2023-06-22T04:36:39;19.70;99.90
35804;DHT22;21924;51.934;7.414;2023-06-22T04:39:24;19.80;99.90
35804;DHT22;21924;51.934;7.414;2023-06-22T04:42:08;20.10;99.90
35804;DHT22;21924;51.934;7.414;2023-06-22T04:44:53;19.90;99.90
35804;DHT22;21924;51.934;7.414;2023-06-22T04:47:37;20.10;99.90
35804;DHT22;21924;51.934;7.414;2023-06-22T04:50:23;20.20;99.90
35804;DHT22;21924;51.934;7.414;2023-06-22T04:53:07;20.40;99.90
35804;DHT22;21924;51.934;7.414;2023-06-22T04:55:53;20.40;99.90
35804;DHT22;21924;51.934;7.414;2023-06-22T04:58:38;20.60;99.90
35804;DHT22;21924;51.934;7.414;2023-06-22T05:01:23;20.50;99.90
35804;DHT22;21924;51.934;7.414;2023-06-22T05:04:07;20.40;99.90
35804;DHT22;21924;51.934;7.414;2023-06-22T05:06:53;20.50;99.90
35804;DHT22;21924;51.934;7.414;2023-06-22T05:09:37;20.50;99.90
35804;DHT22;21924;51.934;7.414;2023-06-22T05:12:22;20.50;99.90
35804;DHT22;21924;51.934;7.414;2023-06-22T05:15:07;20.60;99.90
35804;DHT22;21924;51.934;7.414;2023-06-22T05:17:52;20.70;99.90
35804;DHT22;21924;51.934;7.414;2023-06-22T05:20:36;20.80;99.90
35804;DHT22;21924;51.934;7.414;2023-06-22T05:23:20;20.80;99.90
35804;DHT22;21924;51.934;7.414;2023-06-22T05:26:05;20.70;99.90
35804;DHT22;21924;51.934;7.414;2023-06-22T05:28:49;20.60;99.90
35804;DHT22;21924;51.934;7.414;2023-06-22T05:31:34;20.70;99.90
35804;DHT22;21924;51.934;7.414;2023-06-22T05:34:18;20.60;99.90
35804;DHT22;21924;51.934;7.414;2023-06-22T05:37:03;20.60;99.90
35804;DHT22;21924;51.934;7.414;2023-06-22T05:39:47;20.70;99.90
35804;DHT22;21924;51.934;7.414;2023-06-22T05:42:31;20.90;99.90
35804;DHT22;21924;51.934;7.414;2023-06-22T05:45:16;21.00;99.90
35804;DHT22;21924;51.934;7.414;2023-06-22T05:48:00;21.10;99.90
35804;DHT22;21924;51.934;7.414;2023-06-22T05:50:45;21.10;99.90
35804;DHT22;21924;51.934;7.414;2023-06-22T05:53:29;21.30;99.90
35804;DHT22;21924;51.934;7.414;2023-06-22T05:56:13;21.50;99.90
35804;DHT22;21924;51.934;7.414;2023-06-22T05:58:58;21.60;99.90
35804;DHT22;21924;51.934;7.414;2023-06-22T06:01:42;21.60;99.90
35804;DHT22;21924;51.934;7.414;2023-06-22T06:04:26;21.60;99.90
35804;DHT22;21924;51.934;7.414;2023-06-22T06:07:10;21.60;99.90
35804;DHT22;21924;51.934;7.414;2023-06-22T06:09:55;21.60;99.90
35804;DHT22;21924;51.934;7.414;2023-06-22T06:12:39;21.70;99.90
35804;DHT22;21924;51.934;7.414;2023-06-22T06:15:23;21.70;99.90
35804;DHT22;21924;51.934;7.414;2023-06-22T06:18:07;21.80;99.90
35804;DHT22;21924;51.934;7.414;2023-06-22T06:20:52;21.70;99.90
35804;DHT22;21924;51.934;7.414;2023-06-22T06:23:36;21.70;99.90
35804;DHT22;21924;51.934;7.414;2023-06-22T06:26:20;21.70;99.90
35804;DHT22;21924;51.934;7.414;2023-06-22T06:29:13;21.70;99.90
35804;DHT22;21924;51.934;7.414;2023-06-22T06:32:00;21.70;99.90
35804;DHT22;21924;51.934;7.414;2023-06-22T06:34:44;21.60;99.90
35804;DHT22;21924;51.934;7.414;2023-06-22T06:37:28;21.70;99.90
35804;DHT22;21924;51.934;7.414;2023-06-22T06:40:14;21.60;99.90
35804;DHT22;21924;51.934;7.414;2023-06-22T06:42:59;21.60;99.90
35804;DHT22;21924;51.934;7.414;2023-06-22T06:45:43;21.80;99.90
35804;DHT22;21924;51.934;7.414;2023-06-22T06:48:27;21.70;99.90
35804;DHT22;21924;51.934;7.414;2023-06-22T06:51:11;21.60;99.90
35804;DHT22;21924;51.934;7.414;2023-06-22T06:53:56;21.60;99.90
35804;DHT22;21924;51.934;7.414;2023-06-22T06:56:40;21.70;99.90
35804;DHT22;21924;51.934;7.414;2023-06-22T06:59:24;21.80;99.90
35804;DHT22;21924;51.934;7.414;2023-06-22T07:02:09;21.80;99.90
35804;DHT22;21924;51.934;7.414;2023-06-22T07:04:53;21.80;99.90
35804;DHT22;21924;51.934;7.414;2023-06-22T07:07:39;21.90;99.90
35804;DHT22;21924;51.934;7.414;2023-06-22T07:10:25;21.90;99.90
35804;DHT22;21924;51.934;7.414;2023-06-22T07:13:11;21.90;99.90
35804;DHT22;21924;51.934;7.414;2023-06-22T07:15:55;21.90;99.90
35804;DHT22;21924;51.934;7.414;2023-06-22T07:18:40;21.90;99.90
35804;DHT22;21924;51.934;7.414;2023-06-22T07:21:24;21.80;99.90
35804;DHT22;21924;51.934;7.414;2023-06-22T07:24:09;21.80;99.90
35804;DHT22;21924;51.934;7.414;2023-06-22T07:26:53;21.80;99.90
35804;DHT22;21924;51.934;7.414;2023-06-22T07:29:37;21.90;99.90
35804;DHT22;21924;51.934;7.414;2023-06-22T07:32:23;21.90;99.90
35804;DHT22;21924;51.934;7.414;2023-06-22T07:35:08;22.00;99.90
35804;DHT22;21924;51.934;7.414;2023-06-22T07:37:52;22.10;99.90
35804;DHT22;21924;51.934;7.414;2023-06-22T07:40:36;22.10;99.90
35804;DHT22;21924;51.934;7.414;2023-06-22T07:43:21;22.20;99.90
35804;DHT22;21924;51.934;7.414;2023-06-22T07:46:05;22.30;99.90
35804;DHT22;21924;51.934;7.414;2023-06-22T07:48:50;22.40;99.90
35804;DHT22;21924;51.934;7.414;2023-06-22T07:51:35;22.40;99.90
35804;DHT22;21924;51.934;7.414;2023-06-22T07:54:19;22.40;99.90
35804;DHT22;21924;51.934;7.414;2023-06-22T07:57:04;22.50;99.90
35804;DHT22;21924;51.934;7.414;2023-06-22T07:59:48;22.60;99.90
35804;DHT22;21924;51.934;7.414;2023-06-22T08:02:33;22.50;99.90
35804;DHT22;21924;51.934;7.414;2023-06-22T08:05:17;22.40;99.90
35804;DHT22;21924;51.934;7.414;2023-06-22T08:08:01;22.50;99.90
35804;DHT22;21924;51.934;7.414;2023-06-22T08:10:46;22.50;99.90
35804;DHT22;21924;51.934;7.414;2023-06-22T08:13:30;22.50;99.90
35804;DHT22;21924;51.934;7.414;2023-06-22T08:16:14;22.40;99.90
35804;DHT22;21924;51.934;7.414;2023-06-22T08:18:58;22.50;99.90
35804;DHT22;21924;51.934;7.414;2023-06-22T08:21:43;22.60;99.90
35804;DHT22;21924;51.934;7.414;2023-06-22T08:24:27;22.50;99.90
35804;DHT22;21924;51.934;7.414;2023-06-22T08:27:14;22.60;99.90
35804;DHT22;21924;51.934;7.414;2023-06-22T08:30:07;22.70;99.90
35804;DHT22;21924;51.934;7.414;2023-06-22T08:32:51;23.00;99.90
35804;DHT22;21924;51.934;7.414;2023-06-22T08:35:35;23.30;99.90
35804;DHT22;21924;51.934;7.414;2023-06-22T08:38:19;23.60;99.90
35804;DHT22;21924;51.934;7.414;2023-06-22T08:41:04;23.90;99.90
35804;DHT22;21924;51.934;7.414;2023-06-22T08:43:48;24.00;99.90
35804;DHT22;21924;51.934;7.414;2023-06-22T08:46:32;24.20;99.90
35804;DHT22;21924;51.934;7.414;2023-06-22T08:49:17;24.50;99.90
35804;DHT22;21924;51.934;7.414;2023-06-22T08:52:02;24.50;99.90
35804;DHT22;21924;51.934;7.414;2023-06-22T08:54:46;24.70;99.90
35804;DHT22;21924;51.934;7.414;2023-06-22T08:57:31;24.70;99.90
35804;DHT22;21924;51.934;7.414;2023-06-22T09:00:17;24.50;99.90
35804;DHT22;21924;51.934;7.414;2023-06-22T09:03:03;24.40;99.90
35804;DHT22;21924;51.934;7.414;2023-06-22T09:05:48;24.40;99.90
35804;DHT22;21924;51.934;7.414;2023-06-22T09:08:32;24.20;99.90
35804;DHT22;21924;51.934;7.414;2023-06-22T09:11:16;24.30;99.90
35804;DHT22;21924;51.934;7.414;2023-06-22T09:14:01;24.40;99.90
35804;DHT22;21924;51.934;7.414;2023-06-22T09:16:45;24.50;99.90
35804;DHT22;21924;51.934;7.414;2023-06-22T09:19:29;24.50;99.90
35804;DHT22;21924;51.934;7.414;2023-06-22T09:22:14;24.60;99.90
35804;DHT22;21924;51.934;7.414;2023-06-22T09:24:58;24.80;99.90
35804;DHT22;21924;51.934;7.414;2023-06-22T09:27:43;25.10;99.90
35804;DHT22;21924;51.934;7.414;2023-06-22T09:30:28;25.40;99.90
35804;DHT22;21924;51.934;7.414;2023-06-22T09:33:12;25.90;99.90
35804;DHT22;21924;51.934;7.414;2023-06-22T09:35:56;26.10;99.90
35804;DHT22;21924;51.934;7.414;2023-06-22T09:38:40;26.20;99.90
35804;DHT22;21924;51.934;7.414;2023-06-22T09:41:25;26.40;99.90
35804;DHT22;21924;51.934;7.414;2023-06-22T09:44:09;26.40;99.90
35804;DHT22;21924;51.934;7.414;2023-06-22T09:46:53;26.50;99.90
35804;DHT22;21924;51.934;7.414;2023-06-22T09:49:38;26.60;99.90
35804;DHT22;21924;51.934;7.414;2023-06-22T09:52:22;26.30;99.90
35804;DHT22;21924;51.934;7.414;2023-06-22T09:55:07;26.30;99.90
35804;DHT22;21924;51.934;7.414;2023-06-22T09:57:51;26.40;99.90
35804;DHT22;21924;51.934;7.414;2023-06-22T10:00:35;26.10;99.90
35804;DHT22;21924;51.934;7.414;2023-06-22T10:03:20;25.90;99.90
35804;DHT22;21924;51.934;7.414;2023-06-22T10:06:04;25.80;99.90
35804;DHT22;21924;51.934;7.414;2023-06-22T10:08:50;25.80;99.90
35804;DHT22;21924;51.934;7.414;2023-06-22T10:11:35;25.90;99.90
35804;DHT22;21924;51.934;7.414;2023-06-22T10:14:19;25.80;99.90
35804;DHT22;21924;51.934;7.414;2023-06-22T10:17:04;25.90;99.90
35804;DHT22;21924;51.934;7.414;2023-06-22T10:19:51;25.80;99.90
35804;DHT22;21924;51.934;7.414;2023-06-22T10:22:35;25.80;99.90
35804;DHT22;21924;51.934;7.414;2023-06-22T10:25:19;25.80;99.90
35804;DHT22;21924;51.934;7.414;2023-06-22T10:28:03;25.80;99.90
35804;DHT22;21924;51.934;7.414;2023-06-22T10:30:48;25.60;99.90
35804;DHT22;21924;51.934;7.414;2023-06-22T10:33:32;25.80;99.90
35804;DHT22;21924;51.934;7.414;2023-06-22T10:36:16;25.70;99.90
35804;DHT22;21924;51.934;7.414;2023-06-22T10:39:00;25.70;99.90
35804;DHT22;21924;51.934;7.414;2023-06-22T10:41:46;25.60;99.90
35804;DHT22;21924;51.934;7.414;2023-06-22T10:44:30;25.70;99.90
35804;DHT22;21924;51.934;7.414;2023-06-22T10:47:14;25.60;99.90
35804;DHT22;21924;51.934;7.414;2023-06-22T10:49:59;25.60;99.90
35804;DHT22;21924;51.934;7.414;2023-06-22T10:52:43;25.70;99.90
35804;DHT22;21924;51.934;7.414;2023-06-22T10:55:27;25.70;99.90
35804;DHT22;21924;51.934;7.414;2023-06-22T10:58:11;25.60;99.90
35804;DHT22;21924;51.934;7.414;2023-06-22T11:00:56;25.50;99.90
35804;DHT22;21924;51.934;7.414;2023-06-22T11:03:40;25.50;99.90
35804;DHT22;21924;51.934;7.414;2023-06-22T11:06:24;25.60;99.90
35804;DHT22;21924;51.934;7.414;2023-06-22T11:09:09;26.00;99.90
35804;DHT22;21924;51.934;7.414;2023-06-22T11:11:53;26.00;99.90
35804;DHT22;21924;51.934;7.414;2023-06-22T11:14:39;26.10;99.90
35804;DHT22;21924;51.934;7.414;2023-06-22T11:17:23;26.30;99.90
35804;DHT22;21924;51.934;7.414;2023-06-22T11:20:08;26.60;99.90
35804;DHT22;21924;51.934;7.414;2023-06-22T11:22:55;26.60;99.90
35804;DHT22;21924;51.934;7.414;2023-06-22T11:25:40;26.70;99.90
35804;DHT22;21924;51.934;7.414;2023-06-22T11:28:27;26.90;99.90
35804;DHT22;21924;51.934;7.414;2023-06-22T11:31:11;27.30;99.90
35804;DHT22;21924;51.934;7.414;2023-06-22T11:33:55;27.70;99.90
35804;DHT22;21924;51.934;7.414;2023-06-22T11:36:39;27.60;99.90
35804;DHT22;21924;51.934;7.414;2023-06-22T11:39:24;27.50;99.90
35804;DHT22;21924;51.934;7.414;2023-06-22T11:42:09;27.40;99.90
35804;DHT22;21924;51.934;7.414;2023-06-22T11:44:53;27.00;99.90
35804;DHT22;21924;51.934;7.414;2023-06-22T11:47:38;26.70;99.90
35804;DHT22;21924;51.934;7.414;2023-06-22T11:50:23;26.60;99.90
35804;DHT22;21924;51.934;7.414;2023-06-22T11:53:07;26.20;99.90
35804;DHT22;21924;51.934;7.414;2023-06-22T11:55:51;25.90;99.90
35804;DHT22;21924;51.934;7.414;2023-06-22T11:58:38;25.80;99.90
35804;DHT22;21924;51.934;7.414;2023-06-22T12:01:22;25.70;99.90
35804;DHT22;21924;51.934;7.414;2023-06-22T12:04:06;25.70;99.90
35804;DHT22;21924;51.934;7.414;2023-06-22T12:06:51;25.60;99.90
35804;DHT22;21924;51.934;7.414;2023-06-22T12:09:35;25.50;99.90
35804;DHT22;21924;51.934;7.414;2023-06-22T12:12:19;25.50;99.90
35804;DHT22;21924;51.934;7.414;2023-06-22T12:15:04;25.60;99.90
35804;DHT22;21924;51.934;7.414;2023-06-22T12:17:48;25.50;99.90
35804;DHT22;21924;51.934;7.414;2023-06-22T12:20:32;25.40;99.90
35804;DHT22;21924;51.934;7.414;2023-06-22T12:23:17;25.20;99.90
35804;DHT22;21924;51.934;7.414;2023-06-22T12:26:01;25.00;99.90
35804;DHT22;21924;51.934;7.414;2023-06-22T12:28:45;24.90;99.90
35804;DHT22;21924;51.934;7.414;2023-06-22T12:31:31;24.80;99.90
35804;DHT22;21924;51.934;7.414;2023-06-22T12:34:15;24.70;99.90
35804;DHT22;21924;51.934;7.414;2023-06-22T12:37:00;24.60;99.90
35804;DHT22;21924;51.934;7.414;2023-06-22T12:39:44;24.50;99.90
35804;DHT22;21924;51.934;7.414;2023-06-22T12:42:28;24.40;99.90
35804;DHT22;21924;51.934;7.414;2023-06-22T12:45:12;24.20;99.90
35804;DHT22;21924;51.934;7.414;2023-06-22T12:47:57;24.10;99.90
35804;DHT22;21924;51.934;7.414;2023-06-22T12:50:41;23.90;99.90
35804;DHT22;21924;51.934;7.414;2023-06-22T12:53:25;23.80;99.90
35804;DHT22;21924;51.934;7.414;2023-06-22T12:56:11;23.60;99.90
35804;DHT22;21924;51.934;7.414;2023-06-22T12:58:55;23.50;99.90
35804;DHT22;21924;51.934;7.414;2023-06-22T13:01:39;23.30;99.90
35804;DHT22;21924;51.934;7.414;2023-06-22T13:04:23;23.20;99.90
35804;DHT22;21924;51.934;7.414;2023-06-22T13:07:08;23.10;99.90
35804;DHT22;21924;51.934;7.414;2023-06-22T13:09:53;22.90;99.90
35804;DHT22;21924;51.934;7.414;2023-06-22T13:12:37;22.80;99.90
35804;DHT22;21924;51.934;7.414;2023-06-22T13:15:21;22.70;99.90
35804;DHT22;21924;51.934;7.414;2023-06-22T13:18:06;22.70;99.90
35804;DHT22;21924;51.934;7.414;2023-06-22T13:20:50;22.60;99.90
35804;DHT22;21924;51.934;7.414;2023-06-22T13:23:34;22.70;99.90
35804;DHT22;21924;51.934;7.414;2023-06-22T13:26:20;22.60;99.90
35804;DHT22;21924;51.934;7.414;2023-06-22T13:29:04;22.60;99.90
35804;DHT22;21924;51.934;7.414;2023-06-22T13:31:48;22.70;99.90
35804;DHT22;21924;51.934;7.414;2023-06-22T13:34:32;22.90;99.90
35804;DHT22;21924;51.934;7.414;2023-06-22T13:37:17;23.00;99.90
35804;DHT22;21924;51.934;7.414;2023-06-22T13:40:01;23.10;99.90
35804;DHT22;21924;51.934;7.414;2023-06-22T13:42:49;23.30;99.90
35804;DHT22;21924;51.934;7.414;2023-06-22T13:45:33;23.40;99.90
35804;DHT22;21924;51.934;7.414;2023-06-22T13:48:17;23.70;99.90
35804;DHT22;21924;51.934;7.414;2023-06-22T13:51:02;23.80;99.90
35804;DHT22;21924;51.934;7.414;2023-06-22T13:53:46;23.80;99.90
35804;DHT22;21924;51.934;7.414;2023-06-22T13:56:32;23.90;99.90
35804;DHT22;21924;51.934;7.414;2023-06-22T13:59:16;23.80;99.90
35804;DHT22;21924;51.934;7.414;2023-06-22T14:02:00;23.70;99.90
35804;DHT22;21924;51.934;7.414;2023-06-22T14:04:44;23.60;99.90
35804;DHT22;21924;51.934;7.414;2023-06-22T14:07:29;23.40;99.90
35804;DHT22;21924;51.934;7.414;2023-06-22T14:10:13;23.40;99.90
35804;DHT22;21924;51.934;7.414;2023-06-22T14:12:57;23.50;99.90
35804;DHT22;21924;51.934;7.414;2023-06-22T14:15:43;23.60;99.90
35804;DHT22;21924;51.934;7.414;2023-06-22T14:18:28;23.70;99.90
35804;DHT22;21924;51.934;7.414;2023-06-22T14:21:12;23.70;99.90
35804;DHT22;21924;51.934;7.414;2023-06-22T14:23:56;24.00;99.90
35804;DHT22;21924;51.934;7.414;2023-06-22T14:26:41;24.00;99.90
35804;DHT22;21924;51.934;7.414;2023-06-22T14:29:25;24.00;99.90
35804;DHT22;21924;51.934;7.414;2023-06-22T14:32:10;23.80;99.90
35804;DHT22;21924;51.934;7.414;2023-06-22T14:34:54;23.80;99.90
35804;DHT22;21924;51.934;7.414;2023-06-22T14:37:38;23.60;99.90
35804;DHT22;21924;51.934;7.414;2023-06-22T14:40:22;23.40;99.90
35804;DHT22;21924;51.934;7.414;2023-06-22T14:43:07;23.50;99.90
35804;DHT22;21924;51.934;7.414;2023-06-22T14:45:51;23.40;99.90
35804;DHT22;21924;51.934;7.414;2023-06-22T14:48:35;23.50;99.90
35804;DHT22;21924;51.934;7.414;2023-06-22T14:51:19;23.50;99.90
35804;DHT22;21924;51.934;7.414;2023-06-22T14:54:04;23.50;99.90
35804;DHT22;21924;51.934;7.414;2023-06-22T14:56:48;23.50;99.90
35804;DHT22;21924;51.934;7.414;2023-06-22T14:59:32;23.30;99.90
35804;DHT22;21924;51.934;7.414;2023-06-22T15:02:17;23.30;99.90
35804;DHT22;21924;51.934;7.414;2023-06-22T15:05:01;23.20;99.90
35804;DHT22;21924;51.934;7.414;2023-06-22T15:07:45;23.10;99.90
35804;DHT22;21924;51.934;7.414;2023-06-22T15:10:30;23.10;99.90
35804;DHT22;21924;51.934;7.414;2023-06-22T15:13:14;23.00;99.90
35804;DHT22;21924;51.934;7.414;2023-06-22T15:15:58;22.90;99.90
35804;DHT22;21924;51.934;7.414;2023-06-22T15:18:42;22.90;99.90
35804;DHT22;21924;51.934;7.414;2023-06-22T15:21:26;22.80;99.90
35804;DHT22;21924;51.934;7.414;2023-06-22T15:24:11;22.80;99.90
35804;DHT22;21924;51.934;7.414;2023-06-22T15:26:55;22.80;99.90
35804;DHT22;21924;51.934;7.414;2023-06-22T15:29:40;22.80;99.90
35804;DHT22;21924;51.934;7.414;2023-06-22T15:32:25;22.80;99.90
35804;DHT22;21924;51.934;7.414;2023-06-22T15:35:09;22.80;99.90
35804;DHT22;21924;51.934;7.414;2023-06-22T15:37:53;22.70;99.90
35804;DHT22;21924;51.934;7.414;2023-06-22T15:40:37;22.70;99.90
35804;DHT22;21924;51.934;7.414;2023-06-22T15:43:22;22.60;99.90
35804;DHT22;21924;51.934;7.414;2023-06-22T15:46:06;22.50;99.90
35804;DHT22;21924;51.934;7.414;2023-06-22T15:48:50;22.50;99.90
35804;DHT22;21924;51.934;7.414;2023-06-22T15:51:34;22.50;99.90
35804;DHT22;21924;51.934;7.414;2023-06-22T15:54:19;22.40;99.90
35804;DHT22;21924;51.934;7.414;2023-06-22T15:57:03;22.40;99.90
35804;DHT22;21924;51.934;7.414;2023-06-22T15:59:48;22.40;99.90
35804;DHT22;21924;51.934;7.414;2023-06-22T16:02:32;22.40;99.90
35804;DHT22;21924;51.934;7.414;2023-06-22T16:05:16;22.60;99.90
35804;DHT22;21924;51.934;7.414;2023-06-22T16:08:01;22.60;99.90
35804;DHT22;21924;51.934;7.414;2023-06-22T16:10:44;22.70;99.90
35804;DHT22;21924;51.934;7.414;2023-06-22T16:13:29;22.60;99.90
35804;DHT22;21924;51.934;7.414;2023-06-22T16:16:13;22.40;99.90
35804;DHT22;21924;51.934;7.414;2023-06-22T16:19:00;22.20;99.90
35804;DHT22;21924;51.934;7.414;2023-06-22T16:21:44;22.10;99.90
35804;DHT22;21924;51.934;7.414;2023-06-22T16:24:28;21.90;99.90
35804;DHT22;21924;51.934;7.414;2023-06-22T16:27:12;21.80;99.90
35804;DHT22;21924;51.934;7.414;2023-06-22T16:29:57;21.80;99.90
35804;DHT22;21924;51.934;7.414;2023-06-22T16:32:53;21.70;99.90
35804;DHT22;21924;51.934;7.414;2023-06-22T16:35:37;21.60;99.90
35804;DHT22;21924;51.934;7.414;2023-06-22T16:38:24;21.60;99.90
35804;DHT22;21924;51.934;7.414;2023-06-22T16:41:08;21.50;99.90
35804;DHT22;21924;51.934;7.414;2023-06-22T16:43:53;21.40;99.90
35804;DHT22;21924;51.934;7.414;2023-06-22T16:46:37;21.30;99.90
35804;DHT22;21924;51.934;7.414;2023-06-22T16:49:23;21.20;99.90
35804;DHT22;21924;51.934;7.414;2023-06-22T16:52:08;21.20;99.90
35804;DHT22;21924;51.934;7.414;2023-06-22T16:54:52;21.10;99.90
35804;DHT22;21924;51.934;7.414;2023-06-22T16:57:36;21.00;99.90
35804;DHT22;21924;51.934;7.414;2023-06-22T17:00:21;21.00;99.90
35804;DHT22;21924;51.934;7.414;2023-06-22T17:03:06;20.90;99.90
35804;DHT22;21924;51.934;7.414;2023-06-22T17:05:56;20.80;99.90
35804;DHT22;21924;51.934;7.414;2023-06-22T17:08:41;20.70;99.90
35804;DHT22;21924;51.934;7.414;2023-06-22T17:11:28;20.60;99.90
35804;DHT22;21924;51.934;7.414;2023-06-22T17:14:13;20.50;99.90
35804;DHT22;21924;51.934;7.414;2023-06-22T17:16:57;20.40;99.90
35804;DHT22;21924;51.934;7.414;2023-06-22T17:19:42;20.40;99.90
35804;DHT22;21924;51.934;7.414;2023-06-22T17:22:26;20.30;99.90
35804;DHT22;21924;51.934;7.414;2023-06-22T17:25:11;20.30;99.90
35804;DHT22;21924;51.934;7.414;2023-06-22T17:27:58;20.30;99.90
35804;DHT22;21924;51.934;7.414;2023-06-22T17:30:43;20.20;99.90
35804;DHT22;21924;51.934;7.414;2023-06-22T17:33:28;20.20;99.90